sensor_id;sensor_type;location;lat;lon;timestamp;temperature;humidity
4725;DHT22;2376;53.544;10.226;2023-09-19T00:00:06;18.00;99.90
4725;DHT22;2376;53.544;10.226;2023-09-19T00:02:33;17.90;99.90
4725;DHT22;2376;53.544;10.226;2023-09-19T00:05:02;17.90;99.90
4725;DHT22;2376;53.544;10.226;2023-09-19T00:07:29;18.00;99.90
4725;DHT22;2376;53.544;10.226;2023-09-19T00:09:55;18.00;99.90
4725;DHT22;2376;53.544;10.226;2023-09-19T00:12:22;18.00;99.90
4725;DHT22;2376;53.544;10.226;2023-09-19T00:14:50;18.00;99.90
4725;DHT22;2376;53.544;10.226;2023-09-19T00:17:18;17.90;99.90
4725;DHT22;2376;53.544;10.226;2023-09-19T00:19:45;18.00;99.90
4725;DHT22;2376;53.544;10.226;2023-09-19T00:22:12;17.90;99.90
4725;DHT22;2376;53.544;10.226;2023-09-19T00:24:41;17.90;99.90
4725;DHT22;2376;53.544;10.226;2023-09-19T00:27:08;17.90;99.90
4725;DHT22;2376;53.544;10.226;2023-09-19T00:29:34;17.90;99.90
4725;DHT22;2376;53.544;10.226;2023-09-19T00:32:03;17.90;99.90
4725;DHT22;2376;53.544;10.226;2023-09-19T00:34:31;17.90;99.90
4725;DHT22;2376;53.544;10.226;2023-09-19T00:36:59;17.90;99.90
4725;DHT22;2376;53.544;10.226;2023-09-19T00:39:26;17.90;99.90
4725;DHT22;2376;53.544;10.226;2023-09-19T00:41:53;17.90;99.90
4725;DHT22;2376;53.544;10.226;2023-09-19T00:44:20;17.90;99.90
4725;DHT22;2376;53.544;10.226;2023-09-19T00:46:48;17.90;99.90
4725;DHT22;2376;53.544;10.226;2023-09-19T00:49:16;17.90;99.90
4725;DHT22;2376;53.544;10.226;2023-09-19T00:51:46;17.90;99.90
4725;DHT22;2376;53.544;10.226;2023-09-19T00:54:13;17.90;99.90
4725;DHT22;2376;53.544;10.226;2023-09-19T00:56:44;17.90;99.90
4725;DHT22;2376;53.544;10.226;2023-09-19T00:59:11;17.90;99.90
4725;DHT22;2376;53.544;10.226;2023-09-19T01:01:39;17.90;99.90
4725;DHT22;2376;53.544;10.226;2023-09-19T01:04:06;17.90;99.90
4725;DHT22;2376;53.544;10.226;2023-09-19T01:06:34;17.90;99.90
4725;DHT22;2376;53.544;10.226;2023-09-19T01:09:02;17.90;99.90
4725;DHT22;2376;53.544;10.226;2023-09-19T01:11:35;17.90;99.90
4725;DHT22;2376;53.544;10.226;2023-09-19T01:14:14;17.90;99.90
4725;DHT22;2376;53.544;10.226;2023-09-19T01:16:50;17.80;99.90
4725;DHT22;2376;53.544;10.226;2023-09-19T01:22:28;17.80;99.90
4725;DHT22;2376;53.544;10.226;2023-09-19T01:25:20;17.80;99.90
4725;DHT22;2376;53.544;10.226;2023-09-19T01:28:08;17.80;99.90
4725;DHT22;2376;53.544;10.226;2023-09-19T01:30:44;17.80;99.90
4725;DHT22;2376;53.544;10.226;2023-09-19T01:33:12;17.80;99.90
4725;DHT22;2376;53.544;10.226;2023-09-19T01:35:40;17.80;99.90
4725;DHT22;2376;53.544;10.226;2023-09-19T01:38:07;17.90;99.90
4725;DHT22;2376;53.544;10.226;2023-09-19T01:40:39;17.80;99.90
4725;DHT22;2376;53.544;10.226;2023-09-19T01:43:10;17.80;99.90
4725;DHT22;2376;53.544;10.226;2023-09-19T01:45:49;17.80;99.90
4725;DHT22;2376;53.544;10.226;2023-09-19T01:48:23;17.80;99.90
4725;DHT22;2376;53.544;10.226;2023-09-19T01:50:56;17.80;99.90
4725;DHT22;2376;53.544;10.226;2023-09-19T01:53:27;17.80;99.90
4725;DHT22;2376;53.544;10.226;2023-09-19T01:55:57;17.80;99.90
4725;DHT22;2376;53.544;10.226;2023-09-19T01:58:34;17.70;99.90
4725;DHT22;2376;53.544;10.226;2023-09-19T02:01:04;17.70;99.90
4725;DHT22;2376;53.544;10.226;2023-09-19T02:03:33;17.70;99.90
4725;DHT22;2376;53.544;10.226;2023-09-19T02:06:01;17.70;99.90
4725;DHT22;2376;53.544;10.226;2023-09-19T02:08:31;17.70;99.90
4725;DHT22;2376;53.544;10.226;2023-09-19T02:10:59;17.70;99.90
4725;DHT22;2376;53.544;10.226;2023-09-19T02:13:25;17.70;99.90
4725;DHT22;2376;53.544;10.226;2023-09-19T02:15:53;17.70;99.90
4725;DHT22;2376;53.544;10.226;2023-09-19T02:18:22;17.80;99.90
4725;DHT22;2376;53.544;10.226;2023-09-19T02:20:49;17.80;99.90
4725;DHT22;2376;53.544;10.226;2023-09-19T02:23:16;17.80;99.90
4725;DHT22;2376;53.544;10.226;2023-09-19T02:25:51;17.80;99.90
4725;DHT22;2376;53.544;10.226;2023-09-19T02:28:17;17.70;99.90
4725;DHT22;2376;53.544;10.226;2023-09-19T02:30:47;17.60;99.90
4725;DHT22;2376;53.544;10.226;2023-09-19T02:33:14;17.60;99.90
4725;DHT22;2376;53.544;10.226;2023-09-19T02:35:42;17.70;99.90
4725;DHT22;2376;53.544;10.226;2023-09-19T02:38:08;17.70;99.90
4725;DHT22;2376;53.544;10.226;2023-09-19T02:40:37;17.70;99.90
4725;DHT22;2376;53.544;10.226;2023-09-19T02:43:04;17.70;99.90
4725;DHT22;2376;53.544;10.226;2023-09-19T02:45:31;17.70;99.90
4725;DHT22;2376;53.544;10.226;2023-09-19T02:47:58;17.70;99.90
4725;DHT22;2376;53.544;10.226;2023-09-19T02:50:24;17.70;99.90
4725;DHT22;2376;53.544;10.226;2023-09-19T02:52:52;17.60;99.90
4725;DHT22;2376;53.544;10.226;2023-09-19T02:55:20;17.60;99.90
4725;DHT22;2376;53.544;10.226;2023-09-19T02:57:47;17.60;99.90
4725;DHT22;2376;53.544;10.226;2023-09-19T03:00:15;17.60;99.90
4725;DHT22;2376;53.544;10.226;2023-09-19T03:02:42;17.60;99.90
4725;DHT22;2376;53.544;10.226;2023-09-19T03:05:11;17.60;99.90
4725;DHT22;2376;53.544;10.226;2023-09-19T03:07:39;17.60;99.90
4725;DHT22;2376;53.544;10.226;2023-09-19T03:10:08;17.60;99.90
4725;DHT22;2376;53.544;10.226;2023-09-19T03:12:35;17.60;99.90
4725;DHT22;2376;53.544;10.226;2023-09-19T03:15:02;17.60;99.90
4725;DHT22;2376;53.544;10.226;2023-09-19T03:17:29;17.60;99.90
4725;DHT22;2376;53.544;10.226;2023-09-19T03:19:56;17.60;99.90
4725;DHT22;2376;53.544;10.226;2023-09-19T03:22:23;17.60;99.90
4725;DHT22;2376;53.544;10.226;2023-09-19T03:24:51;17.50;99.90
4725;DHT22;2376;53.544;10.226;2023-09-19T03:27:19;17.60;99.90
4725;DHT22;2376;53.544;10.226;2023-09-19T03:29:46;17.50;99.90
4725;DHT22;2376;53.544;10.226;2023-09-19T03:32:12;17.50;99.90
4725;DHT22;2376;53.544;10.226;2023-09-19T03:34:39;17.50;99.90
4725;DHT22;2376;53.544;10.226;2023-09-19T03:37:08;17.60;99.90
4725;DHT22;2376;53.544;10.226;2023-09-19T03:39:35;17.40;99.90
4725;DHT22;2376;53.544;10.226;2023-09-19T03:42:02;17.40;99.90
4725;DHT22;2376;53.544;10.226;2023-09-19T03:44:30;17.40;99.90
4725;DHT22;2376;53.544;10.226;2023-09-19T03:46:57;17.40;99.90
4725;DHT22;2376;53.544;10.226;2023-09-19T03:49:24;17.40;99.90
4725;DHT22;2376;53.544;10.226;2023-09-19T03:51:50;17.30;99.90
4725;DHT22;2376;53.544;10.226;2023-09-19T03:54:17;17.30;99.90
4725;DHT22;2376;53.544;10.226;2023-09-19T03:56:45;17.20;99.90
4725;DHT22;2376;53.544;10.226;2023-09-19T03:59:11;17.20;99.90
4725;DHT22;2376;53.544;10.226;2023-09-19T04:01:40;17.10;99.90
4725;DHT22;2376;53.544;10.226;2023-09-19T04:04:07;17.10;99.90
4725;DHT22;2376;53.544;10.226;2023-09-19T04:06:34;17.10;99.90
4725;DHT22;2376;53.544;10.226;2023-09-19T04:09:01;17.00;99.90
4725;DHT22;2376;53.544;10.226;2023-09-19T04:11:29;17.00;99.90
4725;DHT22;2376;53.544;10.226;2023-09-19T04:13:55;16.80;99.90
4725;DHT22;2376;53.544;10.226;2023-09-19T04:16:22;16.80;99.90
4725;DHT22;2376;53.544;10.226;2023-09-19T04:18:50;16.80;99.90
4725;DHT22;2376;53.544;10.226;2023-09-19T04:21:17;16.80;99.90
4725;DHT22;2376;53.544;10.226;2023-09-19T04:23:45;16.70;99.90
4725;DHT22;2376;53.544;10.226;2023-09-19T04:26:11;16.60;99.90
4725;DHT22;2376;53.544;10.226;2023-09-19T04:28:38;16.60;99.90
4725;DHT22;2376;53.544;10.226;2023-09-19T04:31:06;16.50;99.90
4725;DHT22;2376;53.544;10.226;2023-09-19T04:33:37;16.40;99.90
4725;DHT22;2376;53.544;10.226;2023-09-19T04:36:05;16.40;99.90
4725;DHT22;2376;53.544;10.226;2023-09-19T04:38:32;16.40;99.90
4725;DHT22;2376;53.544;10.226;2023-09-19T04:40:59;16.30;99.90
4725;DHT22;2376;53.544;10.226;2023-09-19T04:43:26;16.30;99.90
4725;DHT22;2376;53.544;10.226;2023-09-19T04:45:54;16.20;99.90
4725;DHT22;2376;53.544;10.226;2023-09-19T04:48:21;16.20;99.90
4725;DHT22;2376;53.544;10.226;2023-09-19T04:50:50;16.20;99.90
4725;DHT22;2376;53.544;10.226;2023-09-19T04:53:18;16.20;99.90
4725;DHT22;2376;53.544;10.226;2023-09-19T04:55:50;16.20;99.90
4725;DHT22;2376;53.544;10.226;2023-09-19T04:58:16;16.10;99.90
4725;DHT22;2376;53.544;10.226;2023-09-19T05:00:43;16.10;99.90
4725;DHT22;2376;53.544;10.226;2023-09-19T05:03:10;16.00;99.90
4725;DHT22;2376;53.544;10.226;2023-09-19T05:05:36;16.00;99.90
4725;DHT22;2376;53.544;10.226;2023-09-19T05:08:04;16.00;99.90
4725;DHT22;2376;53.544;10.226;2023-09-19T05:10:32;16.00;99.90
4725;DHT22;2376;53.544;10.226;2023-09-19T05:13:00;16.00;99.90
4725;DHT22;2376;53.544;10.226;2023-09-19T05:15:27;15.90;99.90
4725;DHT22;2376;53.544;10.226;2023-09-19T05:17:54;16.00;99.90
4725;DHT22;2376;53.544;10.226;2023-09-19T05:20:21;16.00;99.90
4725;DHT22;2376;53.544;10.226;2023-09-19T05:23:00;16.00;99.90
4725;DHT22;2376;53.544;10.226;2023-09-19T05:25:28;15.90;99.90
4725;DHT22;2376;53.544;10.226;2023-09-19T05:27:58;16.00;99.90
4725;DHT22;2376;53.544;10.226;2023-09-19T05:30:26;15.90;99.90
4725;DHT22;2376;53.544;10.226;2023-09-19T05:32:54;16.00;99.90
4725;DHT22;2376;53.544;10.226;2023-09-19T05:35:21;15.90;99.90
4725;DHT22;2376;53.544;10.226;2023-09-19T05:37:50;15.90;99.90
4725;DHT22;2376;53.544;10.226;2023-09-19T05:40:17;15.90;99.90
4725;DHT22;2376;53.544;10.226;2023-09-19T05:42:44;16.00;99.90
4725;DHT22;2376;53.544;10.226;2023-09-19T05:45:12;15.90;99.90
4725;DHT22;2376;53.544;10.226;2023-09-19T05:47:39;15.90;99.90
4725;DHT22;2376;53.544;10.226;2023-09-19T05:50:11;15.90;99.90
4725;DHT22;2376;53.544;10.226;2023-09-19T05:52:38;16.00;99.90
4725;DHT22;2376;53.544;10.226;2023-09-19T05:55:05;16.00;99.90
4725;DHT22;2376;53.544;10.226;2023-09-19T05:57:33;16.00;99.90
4725;DHT22;2376;53.544;10.226;2023-09-19T06:00:00;16.00;99.90
4725;DHT22;2376;53.544;10.226;2023-09-19T06:02:28;16.00;99.90
4725;DHT22;2376;53.544;10.226;2023-09-19T06:04:55;16.00;99.90
4725;DHT22;2376;53.544;10.226;2023-09-19T06:07:22;16.00;99.90
4725;DHT22;2376;53.544;10.226;2023-09-19T06:09:51;16.00;99.90
4725;DHT22;2376;53.544;10.226;2023-09-19T06:12:19;16.00;99.90
4725;DHT22;2376;53.544;10.226;2023-09-19T06:14:45;16.10;99.90
4725;DHT22;2376;53.544;10.226;2023-09-19T06:17:13;16.10;99.90
4725;DHT22;2376;53.544;10.226;2023-09-19T06:19:41;16.10;99.90
4725;DHT22;2376;53.544;10.226;2023-09-19T06:22:15;16.10;99.90
4725;DHT22;2376;53.544;10.226;2023-09-19T06:24:41;16.20;99.90
4725;DHT22;2376;53.544;10.226;2023-09-19T06:27:08;16.30;99.90
4725;DHT22;2376;53.544;10.226;2023-09-19T06:29:35;16.30;99.90
4725;DHT22;2376;53.544;10.226;2023-09-19T06:32:06;16.30;99.90
4725;DHT22;2376;53.544;10.226;2023-09-19T06:34:33;16.40;99.90
4725;DHT22;2376;53.544;10.226;2023-09-19T06:37:01;16.40;99.90
4725;DHT22;2376;53.544;10.226;2023-09-19T06:39:28;16.40;99.90
4725;DHT22;2376;53.544;10.226;2023-09-19T06:41:56;16.40;99.90
4725;DHT22;2376;53.544;10.226;2023-09-19T06:44:23;16.40;99.90
4725;DHT22;2376;53.544;10.226;2023-09-19T06:46:50;16.50;99.90
4725;DHT22;2376;53.544;10.226;2023-09-19T06:49:17;16.50;99.90
4725;DHT22;2376;53.544;10.226;2023-09-19T06:51:43;16.60;99.90
4725;DHT22;2376;53.544;10.226;2023-09-19T06:54:11;16.60;99.90
4725;DHT22;2376;53.544;10.226;2023-09-19T06:56:38;16.70;99.90
4725;DHT22;2376;53.544;10.226;2023-09-19T06:59:07;16.70;99.90
4725;DHT22;2376;53.544;10.226;2023-09-19T07:01:34;16.80;99.90
4725;DHT22;2376;53.544;10.226;2023-09-19T07:04:03;16.80;99.90
4725;DHT22;2376;53.544;10.226;2023-09-19T07:06:30;16.80;99.90
4725;DHT22;2376;53.544;10.226;2023-09-19T07:08:57;16.80;99.90
4725;DHT22;2376;53.544;10.226;2023-09-19T07:11:25;16.90;99.90
4725;DHT22;2376;53.544;10.226;2023-09-19T07:13:52;16.90;99.90
4725;DHT22;2376;53.544;10.226;2023-09-19T07:16:18;16.90;99.90
4725;DHT22;2376;53.544;10.226;2023-09-19T07:18:54;17.00;99.90
4725;DHT22;2376;53.544;10.226;2023-09-19T07:21:22;16.90;99.90
4725;DHT22;2376;53.544;10.226;2023-09-19T07:23:48;17.00;99.90
4725;DHT22;2376;53.544;10.226;2023-09-19T07:26:15;17.00;99.90
4725;DHT22;2376;53.544;10.226;2023-09-19T07:28:43;17.00;99.90
4725;DHT22;2376;53.544;10.226;2023-09-19T07:31:10;17.10;99.90
4725;DHT22;2376;53.544;10.226;2023-09-19T07:33:37;17.10;99.90
4725;DHT22;2376;53.544;10.226;2023-09-19T07:36:04;17.10;99.90
4725;DHT22;2376;53.544;10.226;2023-09-19T07:38:31;17.20;99.90
4725;DHT22;2376;53.544;10.226;2023-09-19T07:41:00;17.20;99.90
4725;DHT22;2376;53.544;10.226;2023-09-19T07:43:27;17.30;99.90
4725;DHT22;2376;53.544;10.226;2023-09-19T07:45:55;17.30;99.90
4725;DHT22;2376;53.544;10.226;2023-09-19T07:48:22;17.40;99.90
4725;DHT22;2376;53.544;10.226;2023-09-19T07:50:49;17.40;99.90
4725;DHT22;2376;53.544;10.226;2023-09-19T07:53:16;17.40;99.90
4725;DHT22;2376;53.544;10.226;2023-09-19T07:55:43;17.40;99.90
4725;DHT22;2376;53.544;10.226;2023-09-19T07:58:13;17.40;99.90
4725;DHT22;2376;53.544;10.226;2023-09-19T08:00:41;17.40;99.90
4725;DHT22;2376;53.544;10.226;2023-09-19T08:03:09;17.40;99.90
4725;DHT22;2376;53.544;10.226;2023-09-19T08:05:40;17.50;99.90
4725;DHT22;2376;53.544;10.226;2023-09-19T08:08:08;17.40;99.90
4725;DHT22;2376;53.544;10.226;2023-09-19T08:10:36;17.40;99.90
4725;DHT22;2376;53.544;10.226;2023-09-19T08:13:05;17.40;99.90
4725;DHT22;2376;53.544;10.226;2023-09-19T08:15:37;17.40;99.90
4725;DHT22;2376;53.544;10.226;2023-09-19T08:18:10;17.40;99.90
4725;DHT22;2376;53.544;10.226;2023-09-19T08:20:37;17.40;99.90
4725;DHT22;2376;53.544;10.226;2023-09-19T08:23:05;17.30;99.90
4725;DHT22;2376;53.544;10.226;2023-09-19T08:25:34;17.20;99.90
4725;DHT22;2376;53.544;10.226;2023-09-19T08:28:00;17.20;99.90
4725;DHT22;2376;53.544;10.226;2023-09-19T08:30:33;17.20;99.90
4725;DHT22;2376;53.544;10.226;2023-09-19T08:33:01;17.20;99.90
4725;DHT22;2376;53.544;10.226;2023-09-19T08:35:31;17.30;99.90
4725;DHT22;2376;53.544;10.226;2023-09-19T08:37:58;17.40;99.90
4725;DHT22;2376;53.544;10.226;2023-09-19T08:40:26;17.40;99.90
4725;DHT22;2376;53.544;10.226;2023-09-19T08:42:56;17.40;99.90
4725;DHT22;2376;53.544;10.226;2023-09-19T08:45:24;17.50;99.90
4725;DHT22;2376;53.544;10.226;2023-09-19T08:48:03;17.60;99.90
4725;DHT22;2376;53.544;10.226;2023-09-19T08:50:39;17.60;99.90
4725;DHT22;2376;53.544;10.226;2023-09-19T08:53:11;17.70;99.90
4725;DHT22;2376;53.544;10.226;2023-09-19T08:55:40;17.70;99.90
4725;DHT22;2376;53.544;10.226;2023-09-19T08:58:10;17.80;99.90
4725;DHT22;2376;53.544;10.226;2023-09-19T09:00:39;17.80;99.90
4725;DHT22;2376;53.544;10.226;2023-09-19T09:03:09;17.80;99.90
4725;DHT22;2376;53.544;10.226;2023-09-19T09:05:39;17.90;99.90
4725;DHT22;2376;53.544;10.226;2023-09-19T09:08:10;18.00;99.90
4725;DHT22;2376;53.544;10.226;2023-09-19T09:10:37;18.00;99.90
4725;DHT22;2376;53.544;10.226;2023-09-19T09:13:06;18.00;99.90
4725;DHT22;2376;53.544;10.226;2023-09-19T09:15:35;18.00;99.90
4725;DHT22;2376;53.544;10.226;2023-09-19T09:18:03;18.00;99.90
4725;DHT22;2376;53.544;10.226;2023-09-19T09:20:30;18.00;99.90
4725;DHT22;2376;53.544;10.226;2023-09-19T09:22:58;18.10;99.90
4725;DHT22;2376;53.544;10.226;2023-09-19T09:25:48;18.10;99.90
4725;DHT22;2376;53.544;10.226;2023-09-19T09:28:20;18.10;99.90
4725;DHT22;2376;53.544;10.226;2023-09-19T09:30:47;18.20;99.90
4725;DHT22;2376;53.544;10.226;2023-09-19T09:33:14;18.30;99.90
4725;DHT22;2376;53.544;10.226;2023-09-19T09:35:49;18.30;99.90
4725;DHT22;2376;53.544;10.226;2023-09-19T09:38:22;18.40;99.90
4725;DHT22;2376;53.544;10.226;2023-09-19T09:40:52;18.50;99.90
4725;DHT22;2376;53.544;10.226;2023-09-19T09:43:29;18.50;99.90
4725;DHT22;2376;53.544;10.226;2023-09-19T09:49:01;18.80;99.90
4725;DHT22;2376;53.544;10.226;2023-09-19T09:51:59;18.90;99.90
4725;DHT22;2376;53.544;10.226;2023-09-19T09:54:32;18.90;99.90
4725;DHT22;2376;53.544;10.226;2023-09-19T09:57:04;19.00;99.90
4725;DHT22;2376;53.544;10.226;2023-09-19T09:59:47;19.10;99.90
4725;DHT22;2376;53.544;10.226;2023-09-19T10:02:15;19.10;99.90
4725;DHT22;2376;53.544;10.226;2023-09-19T10:04:48;19.20;99.90
4725;DHT22;2376;53.544;10.226;2023-09-19T10:07:33;19.20;99.90
4725;DHT22;2376;53.544;10.226;2023-09-19T10:10:04;19.30;99.90
4725;DHT22;2376;53.544;10.226;2023-09-19T10:12:44;19.30;99.90
4725;DHT22;2376;53.544;10.226;2023-09-19T10:15:15;19.30;99.90
4725;DHT22;2376;53.544;10.226;2023-09-19T10:17:43;19.30;99.90
4725;DHT22;2376;53.544;10.226;2023-09-19T10:20:13;19.40;99.90
4725;DHT22;2376;53.544;10.226;2023-09-19T10:22:50;19.40;99.90
4725;DHT22;2376;53.544;10.226;2023-09-19T10:25:26;19.50;99.90
4725;DHT22;2376;53.544;10.226;2023-09-19T10:27:56;19.50;99.90
4725;DHT22;2376;53.544;10.226;2023-09-19T10:30:25;19.60;99.90
4725;DHT22;2376;53.544;10.226;2023-09-19T10:33:00;19.60;99.90
4725;DHT22;2376;53.544;10.226;2023-09-19T10:35:28;19.60;99.90
4725;DHT22;2376;53.544;10.226;2023-09-19T10:37:57;19.60;99.90
4725;DHT22;2376;53.544;10.226;2023-09-19T10:40:27;19.60;99.90
4725;DHT22;2376;53.544;10.226;2023-09-19T10:43:01;19.60;99.90
4725;DHT22;2376;53.544;10.226;2023-09-19T10:45:33;19.60;99.90
4725;DHT22;2376;53.544;10.226;2023-09-19T10:48:00;19.70;99.90
4725;DHT22;2376;53.544;10.226;2023-09-19T10:50:31;19.70;99.90
4725;DHT22;2376;53.544;10.226;2023-09-19T10:53:00;19.70;99.90
4725;DHT22;2376;53.544;10.226;2023-09-19T10:55:32;19.70;99.90
4725;DHT22;2376;53.544;10.226;2023-09-19T10:58:01;19.60;99.90
4725;DHT22;2376;53.544;10.226;2023-09-19T11:00:53;19.60;99.90
4725;DHT22;2376;53.544;10.226;2023-09-19T11:03:21;19.50;99.90
4725;DHT22;2376;53.544;10.226;2023-09-19T11:06:03;19.50;99.90
4725;DHT22;2376;53.544;10.226;2023-09-19T11:08:55;19.60;99.90
4725;DHT22;2376;53.544;10.226;2023-09-19T11:11:43;19.70;99.90
4725;DHT22;2376;53.544;10.226;2023-09-19T11:14:41;19.70;99.90
4725;DHT22;2376;53.544;10.226;2023-09-19T11:17:42;19.70;99.90
4725;DHT22;2376;53.544;10.226;2023-09-19T11:20:24;19.70;99.90
4725;DHT22;2376;53.544;10.226;2023-09-19T11:23:22;19.80;99.90
4725;DHT22;2376;53.544;10.226;2023-09-19T11:25:52;19.70;99.90
4725;DHT22;2376;53.544;10.226;2023-09-19T11:28:36;19.70;99.90
4725;DHT22;2376;53.544;10.226;2023-09-19T11:34:47;19.60;99.90
4725;DHT22;2376;53.544;10.226;2023-09-19T11:40:45;19.70;99.90
4725;DHT22;2376;53.544;10.226;2023-09-19T11:43:32;19.70;99.90
4725;DHT22;2376;53.544;10.226;2023-09-19T11:46:07;19.70;99.90
4725;DHT22;2376;53.544;10.226;2023-09-19T11:48:41;19.70;99.90
4725;DHT22;2376;53.544;10.226;2023-09-19T11:51:14;19.90;99.90
4725;DHT22;2376;53.544;10.226;2023-09-19T11:53:50;20.00;99.90
4725;DHT22;2376;53.544;10.226;2023-09-19T11:56:18;19.90;99.90
4725;DHT22;2376;53.544;10.226;2023-09-19T11:58:45;19.90;99.90
4725;DHT22;2376;53.544;10.226;2023-09-19T12:01:21;19.90;99.90
4725;DHT22;2376;53.544;10.226;2023-09-19T12:03:53;19.90;99.90
4725;DHT22;2376;53.544;10.226;2023-09-19T12:06:20;20.00;99.90
4725;DHT22;2376;53.544;10.226;2023-09-19T12:08:48;20.10;99.90
4725;DHT22;2376;53.544;10.226;2023-09-19T12:11:16;20.10;99.90
4725;DHT22;2376;53.544;10.226;2023-09-19T12:13:46;20.10;99.90
4725;DHT22;2376;53.544;10.226;2023-09-19T12:16:17;20.10;99.90
4725;DHT22;2376;53.544;10.226;2023-09-19T12:18:47;20.10;99.90
4725;DHT22;2376;53.544;10.226;2023-09-19T12:21:26;20.20;99.90
4725;DHT22;2376;53.544;10.226;2023-09-19T12:23:59;20.20;99.90
4725;DHT22;2376;53.544;10.226;2023-09-19T12:26:26;20.20;99.90
4725;DHT22;2376;53.544;10.226;2023-09-19T12:28:54;20.20;99.90
4725;DHT22;2376;53.544;10.226;2023-09-19T12:31:22;20.30;99.90
4725;DHT22;2376;53.544;10.226;2023-09-19T12:33:53;20.30;99.90
4725;DHT22;2376;53.544;10.226;2023-09-19T12:36:20;20.30;99.90
4725;DHT22;2376;53.544;10.226;2023-09-19T12:38:50;20.20;99.90
4725;DHT22;2376;53.544;10.226;2023-09-19T12:41:19;20.20;99.90
4725;DHT22;2376;53.544;10.226;2023-09-19T12:43:46;20.20;99.90
4725;DHT22;2376;53.544;10.226;2023-09-19T12:46:13;20.30;99.90
4725;DHT22;2376;53.544;10.226;2023-09-19T12:48:41;20.40;99.90
4725;DHT22;2376;53.544;10.226;2023-09-19T12:51:11;20.40;99.90
4725;DHT22;2376;53.544;10.226;2023-09-19T12:53:39;20.40;99.90
4725;DHT22;2376;53.544;10.226;2023-09-19T12:56:08;20.50;99.90
4725;DHT22;2376;53.544;10.226;2023-09-19T12:58:48;20.50;99.90
4725;DHT22;2376;53.544;10.226;2023-09-19T13:01:15;20.50;99.90
4725;DHT22;2376;53.544;10.226;2023-09-19T13:03:44;20.60;99.90
4725;DHT22;2376;53.544;10.226;2023-09-19T13:06:11;20.50;99.90
4725;DHT22;2376;53.544;10.226;2023-09-19T13:08:39;20.60;99.90
4725;DHT22;2376;53.544;10.226;2023-09-19T13:11:10;20.60;99.90
4725;DHT22;2376;53.544;10.226;2023-09-19T13:13:40;20.60;99.90
4725;DHT22;2376;53.544;10.226;2023-09-19T13:16:07;20.60;99.90
4725;DHT22;2376;53.544;10.226;2023-09-19T13:18:46;20.60;99.90
4725;DHT22;2376;53.544;10.226;2023-09-19T13:21:14;20.60;99.90
4725;DHT22;2376;53.544;10.226;2023-09-19T13:23:51;20.60;99.90
4725;DHT22;2376;53.544;10.226;2023-09-19T13:26:18;20.70;99.90
4725;DHT22;2376;53.544;10.226;2023-09-19T13:28:45;20.70;99.90
4725;DHT22;2376;53.544;10.226;2023-09-19T13:31:13;20.70;99.90
4725;DHT22;2376;53.544;10.226;2023-09-19T13:33:44;20.70;99.90
4725;DHT22;2376;53.544;10.226;2023-09-19T13:36:11;20.90;99.90
4725;DHT22;2376;53.544;10.226;2023-09-19T13:38:38;20.90;99.90
4725;DHT22;2376;53.544;10.226;2023-09-19T13:41:06;20.90;99.90
4725;DHT22;2376;53.544;10.226;2023-09-19T13:43:32;21.00;99.90
4725;DHT22;2376;53.544;10.226;2023-09-19T13:45:59;21.00;99.90
4725;DHT22;2376;53.544;10.226;2023-09-19T13:48:26;21.00;99.10
4725;DHT22;2376;53.544;10.226;2023-09-19T13:50:56;21.10;98.70
4725;DHT22;2376;53.544;10.226;2023-09-19T13:53:23;21.20;99.10
4725;DHT22;2376;53.544;10.226;2023-09-19T13:55:51;21.20;98.40
4725;DHT22;2376;53.544;10.226;2023-09-19T13:58:18;21.30;98.10
4725;DHT22;2376;53.544;10.226;2023-09-19T14:00:44;21.30;98.00
4725;DHT22;2376;53.544;10.226;2023-09-19T14:03:11;21.20;96.50
4725;DHT22;2376;53.544;10.226;2023-09-19T14:05:37;21.20;97.00
4725;DHT22;2376;53.544;10.226;2023-09-19T14:08:06;21.30;97.60
4725;DHT22;2376;53.544;10.226;2023-09-19T14:10:32;21.40;97.10
4725;DHT22;2376;53.544;10.226;2023-09-19T14:13:00;21.40;96.60
4725;DHT22;2376;53.544;10.226;2023-09-19T14:15:27;21.40;96.10
4725;DHT22;2376;53.544;10.226;2023-09-19T14:17:56;21.50;96.30
4725;DHT22;2376;53.544;10.226;2023-09-19T14:20:23;21.50;95.80
4725;DHT22;2376;53.544;10.226;2023-09-19T14:22:51;21.40;94.80
4725;DHT22;2376;53.544;10.226;2023-09-19T14:25:20;21.40;94.60
4725;DHT22;2376;53.544;10.226;2023-09-19T14:27:46;21.40;94.50
4725;DHT22;2376;53.544;10.226;2023-09-19T14:30:14;21.40;94.50
4725;DHT22;2376;53.544;10.226;2023-09-19T14:32:41;21.40;94.80
4725;DHT22;2376;53.544;10.226;2023-09-19T14:35:08;21.40;95.30
4725;DHT22;2376;53.544;10.226;2023-09-19T14:37:36;21.40;95.50
4725;DHT22;2376;53.544;10.226;2023-09-19T14:40:04;21.40;95.70
4725;DHT22;2376;53.544;10.226;2023-09-19T14:42:36;21.40;95.60
4725;DHT22;2376;53.544;10.226;2023-09-19T14:45:04;21.40;96.00
4725;DHT22;2376;53.544;10.226;2023-09-19T14:47:32;21.50;96.40
4725;DHT22;2376;53.544;10.226;2023-09-19T14:49:59;21.50;96.40
4725;DHT22;2376;53.544;10.226;2023-09-19T14:52:26;21.50;96.10
4725;DHT22;2376;53.544;10.226;2023-09-19T14:54:53;21.50;96.10
4725;DHT22;2376;53.544;10.226;2023-09-19T14:57:20;21.50;96.60
4725;DHT22;2376;53.544;10.226;2023-09-19T14:59:50;21.50;96.60
4725;DHT22;2376;53.544;10.226;2023-09-19T15:02:17;21.50;96.70
4725;DHT22;2376;53.544;10.226;2023-09-19T15:04:44;21.50;96.70
4725;DHT22;2376;53.544;10.226;2023-09-19T15:07:12;21.40;96.60
4725;DHT22;2376;53.544;10.226;2023-09-19T15:09:40;21.40;97.30
4725;DHT22;2376;53.544;10.226;2023-09-19T15:12:07;21.40;97.80
4725;DHT22;2376;53.544;10.226;2023-09-19T15:14:34;21.30;97.90
4725;DHT22;2376;53.544;10.226;2023-09-19T15:17:02;21.20;98.40
4725;DHT22;2376;53.544;10.226;2023-09-19T15:19:30;21.30;99.00
4725;DHT22;2376;53.544;10.226;2023-09-19T15:21:56;21.20;99.10
4725;DHT22;2376;53.544;10.226;2023-09-19T15:24:24;21.00;99.30
4725;DHT22;2376;53.544;10.226;2023-09-19T15:26:52;21.00;99.90
4725;DHT22;2376;53.544;10.226;2023-09-19T15:29:21;20.80;99.90
4725;DHT22;2376;53.544;10.226;2023-09-19T15:31:48;20.70;99.90
4725;DHT22;2376;53.544;10.226;2023-09-19T15:34:16;20.60;99.90
4725;DHT22;2376;53.544;10.226;2023-09-19T15:36:43;20.70;99.90
4725;DHT22;2376;53.544;10.226;2023-09-19T15:39:11;20.50;99.90
4725;DHT22;2376;53.544;10.226;2023-09-19T15:41:41;20.50;99.90
4725;DHT22;2376;53.544;10.226;2023-09-19T15:44:12;20.40;99.90
4725;DHT22;2376;53.544;10.226;2023-09-19T15:46:39;20.40;99.90
4725;DHT22;2376;53.544;10.226;2023-09-19T15:49:06;20.30;99.90
4725;DHT22;2376;53.544;10.226;2023-09-19T15:51:35;20.30;99.90
4725;DHT22;2376;53.544;10.226;2023-09-19T15:54:07;20.20;99.90
4725;DHT22;2376;53.544;10.226;2023-09-19T15:56:34;20.20;99.90
4725;DHT22;2376;53.544;10.226;2023-09-19T15:59:01;20.20;99.90
4725;DHT22;2376;53.544;10.226;2023-09-19T16:01:28;20.10;99.90
4725;DHT22;2376;53.544;10.226;2023-09-19T16:03:54;20.10;99.90
4725;DHT22;2376;53.544;10.226;2023-09-19T16:06:23;20.10;99.90
4725;DHT22;2376;53.544;10.226;2023-09-19T16:08:53;20.00;99.90
4725;DHT22;2376;53.544;10.226;2023-09-19T16:11:21;20.00;99.90